Clorinda, Argentina
Current Conditions -  °F | °C
As of 2:00 PM on Saturday 25 Oct 2014 (Local Time) from SGAS Reporting Station
Few Clouds Few Clouds  
Wind Chill: 97°   Ceiling: Unl
Heat Index: 97°   Visibility: 6mi
Dew Point: 61°   Wind: 5mph
Humidity: 30%   Direction: NA
Pressure: 29.8"   Gusts: NA
Location:  25.29°S, 57.72°W
Report Text: SGAS 251700Z VRB04KT 9999 FEW033 36/16 Q1009
Loading
Personal Weather Stations






























Interactive Weather Map New forecast layout! Learn more

10-Day Weather Forecast

Advertisements
Track Severe Weather on mobile